Wetterdaten: Woche 06.10.14 - 12.10.14 (KW41)
Datum Zeit Temp. A. Feuchte A. Luftdruck Regen Wind Richtung Sonnenschein ET UV Solar Taupunkt Windchill Windben Empfang
06.10.2014 00:00 9,7 C 85 % 1014,2 hPa 0,0 l/m 0,0 km/h (0 Bft) N 0,00 h 0,000 mm 0,0 UV-I 0 W/m 7,2 C 9,7 C 0,0 km/h (0 Bft) 0,00 %
06.10.2014 01:00 8,9 C 87 % 1014,1 hPa 0,0 l/m 0,0 km/h (0 Bft) N 0,00 h 0,000 mm 0,0 UV-I 0 W/m 6,8 C 8,9 C 0,0 km/h (0 Bft) 0,00 %
06.10.2014 02:00 8,5 C 88 % 1014,0 hPa 0,0 l/m 0,0 km/h (0 Bft) O 0,00 h 0,000 mm 0,0 UV-I 0 W/m 6,5 C 8,5 C 0,0 km/h (0 Bft) 0,00 %
06.10.2014 03:00 8,4 C 87 % 1013,5 hPa 0,0 l/m 2,6 km/h (1 Bft) O-SO 0,00 h 0,000 mm 0,0 UV-I 0 W/m 6,5 C 8,4 C 4,0 km/h (1 Bft) 0,00 %
06.10.2014 04:00 8,2 C 88 % 1013,5 hPa 0,0 l/m 0,3 km/h (0 Bft) N 0,00 h 0,000 mm 0,0 UV-I 0 W/m 6,3 C 8,2 C 2,0 km/h (1 Bft) 0,00 %
06.10.2014 05:00 7,4 C 88 % 1013,7 hPa 0,0 l/m 0,0 km/h (0 Bft) N 0,00 h 0,000 mm 0,0 UV-I 0 W/m 5,5 C 7,4 C 0,0 km/h (0 Bft) 0,00 %
06.10.2014 06:00 7,3 C 88 % 1013,8 hPa 0,0 l/m 0,0 km/h (0 Bft) N 0,00 h 0,000 mm 0,0 UV-I 0 W/m 5,4 C 7,3 C 0,0 km/h (0 Bft) 0,00 %
06.10.2014 07:00 8,1 C 87 % 1013,8 hPa 0,0 l/m 0,8 km/h (0 Bft) S-SO 0,00 h 0,000 mm 0,0 UV-I 20 W/m 6,1 C 8,1 C 1,0 km/h (0 Bft) 0,00 %
06.10.2014 08:00 9,6 C 83 % 1013,6 hPa 0,0 l/m 1,2 km/h (1 Bft) O-SO 0,50 h 0,000 mm 1,0 UV-I 124 W/m 6,8 C 9,6 C 3,0 km/h (1 Bft) 0,00 %
06.10.2014 09:00 10,3 C 79 % 1013,6 hPa 0,0 l/m 1,7 km/h (1 Bft) SO 0,25 h 0,000 mm 1,3 UV-I 171 W/m 6,8 C 10,3 C 5,0 km/h (1 Bft) 0,00 %
06.10.2014 10:00 11,2 C 76 % 1013,5 hPa 0,0 l/m 0,3 km/h (0 Bft) O-SO 0,00 h 0,000 mm 2,0 UV-I 159 W/m 7,1 C 11,2 C 1,0 km/h (0 Bft) 0,00 %
06.10.2014 11:00 12,7 C 71 % 1013,0 hPa 0,0 l/m 0,0 km/h (0 Bft) N 0,00 h 0,000 mm 2,7 UV-I 250 W/m 7,6 C 12,7 C 0,0 km/h (0 Bft) 0,00 %
06.10.2014 12:00 13,7 C 69 % 1011,8 hPa 0,0 l/m 0,4 km/h (0 Bft) N 1,00 h 0,000 mm 3,0 UV-I 403 W/m 8,0 C 13,7 C 3,0 km/h (1 Bft) 0,00 %
06.10.2014 13:00 15,0 C 66 % 1010,8 hPa 0,0 l/m 2,0 km/h (1 Bft) O-SO 1,00 h 0,000 mm 2,0 UV-I 422 W/m 8,6 C 15,0 C 5,0 km/h (1 Bft) 0,00 %
06.10.2014 14:00 15,8 C 63 % 1009,9 hPa 0,0 l/m 0,7 km/h (0 Bft) O 1,00 h 0,000 mm 2,0 UV-I 423 W/m 8,7 C 15,8 C 3,0 km/h (1 Bft) 0,00 %
06.10.2014 15:00 16,5 C 61 % 1009,0 hPa 0,0 l/m 4,3 km/h (1 Bft) O-SO 1,00 h 0,000 mm 2,0 UV-I 429 W/m 8,8 C 16,2 C 6,9 km/h (2 Bft) 0,00 %
06.10.2014 16:00 16,9 C 59 % 1008,6 hPa 0,0 l/m 7,0 km/h (2 Bft) NO 1,00 h 0,000 mm 1,0 UV-I 387 W/m 8,8 C 16,0 C 9,9 km/h (2 Bft) 0,00 %
06.10.2014 17:00 16,9 C 59 % 1008,5 hPa 0,0 l/m 2,6 km/h (1 Bft) O 1,00 h 0,000 mm 1,0 UV-I 209 W/m 8,9 C 16,7 C 4,0 km/h (1 Bft) 0,00 %
06.10.2014 18:00 14,9 C 66 % 1009,0 hPa 0,0 l/m 1,0 km/h (0 Bft) O 0,25 h 0,000 mm 0,0 UV-I 13 W/m 8,7 C 14,9 C 3,0 km/h (1 Bft) 0,00 %
06.10.2014 19:00 13,2 C 71 % 1009,2 hPa 0,0 l/m 0,2 km/h (0 Bft) O-NO 0,00 h 0,000 mm 0,0 UV-I 0 W/m 8,1 C 13,2 C 1,0 km/h (0 Bft) 0,00 %
06.10.2014 20:00 12,1 C 73 % 1009,4 hPa 0,0 l/m 0,3 km/h (0 Bft) N 0,00 h 0,000 mm 0,0 UV-I 0 W/m 7,4 C 12,1 C 1,0 km/h (0 Bft) 0,00 %
06.10.2014 21:00 10,9 C 77 % 1009,8 hPa 0,0 l/m 0,0 km/h (0 Bft) N 0,00 h 0,000 mm 0,0 UV-I 0 W/m 7,1 C 10,9 C 0,0 km/h (0 Bft) 0,00 %
06.10.2014 22:00 10,1 C 81 % 1009,9 hPa 0,0 l/m 0,0 km/h (0 Bft) N 0,00 h 0,000 mm 0,0 UV-I 0 W/m 6,8 C 10,1 C 0,0 km/h (0 Bft) 0,00 %
06.10.2014 23:00 9,2 C 83 % 1010,0 hPa 0,0 l/m 0,0 km/h (0 Bft) N 0,00 h 0,000 mm 0,0 UV-I 0 W/m 6,4 C 9,2 C 0,0 km/h (0 Bft) 0,00 %
07.10.2014 00:00 8,4 C 85 % 1010,1 hPa 0,0 l/m 0,0 km/h (0 Bft) N 0,00 h 0,000 mm 0,0 UV-I 0 W/m 6,0 C 8,4 C 0,0 km/h (0 Bft) 0,00 %
07.10.2014 01:00 7,6 C 87 % 1010,4 hPa 0,0 l/m 0,0 km/h (0 Bft) N 0,00 h 0,000 mm 0,0 UV-I 0 W/m 5,5 C 7,6 C 0,0 km/h (0 Bft) 0,00 %
07.10.2014 02:00 7,1 C 88 % 1010,3 hPa 0,0 l/m 0,0 km/h (0 Bft) N 0,00 h 0,000 mm 0,0 UV-I 0 W/m 5,2 C 7,1 C 0,0 km/h (0 Bft) 0,00 %
07.10.2014 03:00 6,4 C 88 % 1010,3 hPa 0,0 l/m 0,0 km/h (0 Bft) N 0,00 h 0,000 mm 0,0 UV-I 0 W/m 4,6 C 6,4 C 0,0 km/h (0 Bft) 0,00 %
07.10.2014 04:00 5,9 C 89 % 1010,3 hPa 0,0 l/m 0,0 km/h (0 Bft) N 0,00 h 0,000 mm 0,0 UV-I 0 W/m 4,2 C 5,9 C 0,0 km/h (0 Bft) 0,00 %
07.10.2014 05:00 5,9 C 89 % 1010,5 hPa 0,0 l/m 0,0 km/h (0 Bft) N 0,00 h 0,000 mm 0,0 UV-I 0 W/m 4,2 C 5,9 C 0,0 km/h (0 Bft) 0,00 %
07.10.2014 06:00 5,3 C 89 % 1010,8 hPa 0,0 l/m 0,0 km/h (0 Bft) N 0,00 h 0,000 mm 0,0 UV-I 0 W/m 3,7 C 5,3 C 0,0 km/h (0 Bft) 0,00 %
07.10.2014 07:00 5,5 C 89 % 1010,9 hPa 0,0 l/m 0,0 km/h (0 Bft) N 0,00 h 0,000 mm 0,0 UV-I 22 W/m 3,9 C 5,5 C 0,0 km/h (0 Bft) 0,00 %
07.10.2014 08:00 7,4 C 87 % 1010,4 hPa 0,0 l/m 0,0 km/h (0 Bft) N 0,00 h 0,000 mm 1,0 UV-I 74 W/m 5,4 C 7,4 C 0,0 km/h (0 Bft) 0,00 %
07.10.2014 09:00 10,8 C 76 % 1009,8 hPa 0,0 l/m 2,4 km/h (1 Bft) O-SO 0,00 h 0,000 mm 2,0 UV-I 124 W/m 6,7 C 10,4 C 4,0 km/h (1 Bft) 0,00 %
07.10.2014 10:00 12,8 C 70 % 1009,3 hPa 0,0 l/m 0,1 km/h (0 Bft) O 0,00 h 0,000 mm 2,3 UV-I 160 W/m 7,4 C 12,8 C 1,0 km/h (0 Bft) 0,00 %
07.10.2014 11:00 14,5 C 65 % 1008,6 hPa 0,0 l/m 2,6 km/h (1 Bft) NO 0,00 h 0,000 mm 3,0 UV-I 250 W/m 7,9 C 14,5 C 4,0 km/h (1 Bft) 0,00 %
07.10.2014 12:00 15,5 C 62 % 1008,5 hPa 0,0 l/m 0,7 km/h (0 Bft) O 0,00 h 0,000 mm 2,3 UV-I 180 W/m 8,2 C 15,5 C 1,0 km/h (0 Bft) 0,00 %
07.10.2014 13:00 16,4 C 61 % 1008,0 hPa 0,0 l/m 0,3 km/h (0 Bft) N 0,00 h 0,000 mm 2,0 UV-I 154 W/m 8,7 C 16,4 C 2,0 km/h (1 Bft) 0,00 %
07.10.2014 14:00 17,5 C 59 % 1007,4 hPa 0,0 l/m 2,3 km/h (1 Bft) O 0,00 h 0,000 mm 2,0 UV-I 180 W/m 9,2 C 17,5 C 4,9 km/h (1 Bft) 0,00 %
07.10.2014 15:00 18,1 C 57 % 1007,5 hPa 0,0 l/m 8,0 km/h (2 Bft) O 0,00 h 0,000 mm 2,0 UV-I 195 W/m 9,3 C 17,1 C 9,9 km/h (2 Bft) 0,00 %
07.10.2014 16:00 18,1 C 58 % 1007,5 hPa 0,0 l/m 3,2 km/h (1 Bft) O 0,50 h 0,000 mm 1,0 UV-I 201 W/m 9,7 C 18,1 C 5,9 km/h (2 Bft) 0,00 %
07.10.2014 17:00 17,0 C 64 % 1008,2 hPa 0,0 l/m 0,9 km/h (0 Bft) N 0,50 h 0,000 mm 1,0 UV-I 81 W/m 10,1 C 17,0 C 4,0 km/h (1 Bft) 0,00 %
07.10.2014 18:00 15,1 C 72 % 1008,7 hPa 0,0 l/m 0,1 km/h (0 Bft) O-SO 0,00 h 0,000 mm 0,0 UV-I 3 W/m 10,0 C 15,1 C 1,0 km/h (0 Bft) 0,00 %
07.10.2014 19:00 14,5 C 72 % 1009,2 hPa 0,0 l/m 2,9 km/h (1 Bft) O-SO 0,00 h 0,000 mm 0,0 UV-I 0 W/m 9,6 C 14,4 C 5,0 km/h (1 Bft) 0,00 %
07.10.2014 20:00 13,3 C 77 % 1010,1 hPa 0,0 l/m 0,0 km/h (0 Bft) N 0,00 h 0,000 mm 0,0 UV-I 0 W/m 9,3 C 13,3 C 0,0 km/h (0 Bft) 0,00 %
07.10.2014 21:00 12,3 C 79 % 1010,4 hPa 0,0 l/m 0,4 km/h (0 Bft) O-SO 0,00 h 0,000 mm 0,0 UV-I 0 W/m 8,8 C 12,3 C 2,0 km/h (1 Bft) 0,00 %
07.10.2014 22:00 11,8 C 80 % 1010,5 hPa 0,0 l/m 1,5 km/h (1 Bft) O-SO 0,00 h 0,000 mm 0,0 UV-I 0 W/m 8,5 C 11,8 C 4,0 km/h (1 Bft) 0,00 %
07.10.2014 23:00 11,5 C 80 % 1010,6 hPa 0,0 l/m 0,4 km/h (0 Bft) N 0,00 h 0,000 mm 0,0 UV-I 0 W/m 8,2 C 11,5 C 3,0 km/h (1 Bft) 0,00 %
08.10.2014 00:00 10,7 C 83 % 1011,0 hPa 0,0 l/m 0,0 km/h (0 Bft) N 0,00 h 0,000 mm 0,0 UV-I 0 W/m 8,0 C 10,7 C 0,0 km/h (0 Bft) 0,00 %
08.10.2014 01:00 9,9 C 85 % 1011,9 hPa 0,0 l/m 0,0 km/h (0 Bft) N 0,00 h 0,000 mm 0,0 UV-I 0 W/m 7,5 C 9,9 C 0,0 km/h (0 Bft) 0,00 %
08.10.2014 02:00 9,2 C 87 % 1013,2 hPa 0,0 l/m 0,0 km/h (0 Bft) N 0,00 h 0,000 mm 0,0 UV-I 0 W/m 7,1 C 9,2 C 0,0 km/h (0 Bft) 0,00 %
08.10.2014 03:00 9,2 C 87 % 1013,8 hPa 0,0 l/m 0,0 km/h (0 Bft) N 0,00 h 0,000 mm 0,0 UV-I 0 W/m 7,2 C 9,2 C 0,0 km/h (0 Bft) 0,00 %
08.10.2014 04:00 9,0 C 87 % 1014,5 hPa 0,0 l/m 0,0 km/h (0 Bft) N 0,00 h 0,000 mm 0,0 UV-I 0 W/m 7,0 C 9,0 C 0,0 km/h (0 Bft) 0,00 %
08.10.2014 05:00 8,8 C 87 % 1015,0 hPa 0,0 l/m 0,0 km/h (0 Bft) N 0,00 h 0,000 mm 0,0 UV-I 0 W/m 6,8 C 8,8 C 0,0 km/h (0 Bft) 0,00 %
08.10.2014 06:00 9,3 C 88 % 1015,1 hPa 0,0 l/m 0,0 km/h (0 Bft) N 0,00 h 0,000 mm 0,0 UV-I 0 W/m 7,3 C 9,3 C 0,0 km/h (0 Bft) 0,00 %
08.10.2014 07:00 8,9 C 88 % 1015,2 hPa 0,3 l/m 0,0 km/h (0 Bft) N 0,00 h 0,000 mm 0,0 UV-I 16 W/m 7,1 C 8,9 C 0,0 km/h (0 Bft) 0,00 %
08.10.2014 08:00 9,9 C 86 % 1014,8 hPa 0,0 l/m 0,0 km/h (0 Bft) N 0,75 h 0,000 mm 1,0 UV-I 115 W/m 7,6 C 9,9 C 0,0 km/h (0 Bft) 0,00 %
08.10.2014 09:00 11,1 C 82 % 1014,3 hPa 0,0 l/m 4,3 km/h (1 Bft) O-SO 0,00 h 0,000 mm 2,0 UV-I 166 W/m 8,2 C 11,1 C 6,9 km/h (2 Bft) 0,00 %
08.10.2014 10:00 11,2 C 83 % 1014,2 hPa 0,0 l/m 1,9 km/h (1 Bft) O-NO 0,00 h 0,000 mm 2,0 UV-I 154 W/m 8,5 C 11,2 C 5,0 km/h (1 Bft) 0,00 %
08.10.2014 11:00 12,5 C 80 % 1012,8 hPa 0,0 l/m 5,0 km/h (1 Bft) O 0,00 h 0,000 mm 2,3 UV-I 244 W/m 9,2 C 11,5 C 5,9 km/h (2 Bft) 0,00 %
08.10.2014 12:00 14,6 C 74 % 1011,2 hPa 0,0 l/m 2,0 km/h (1 Bft) NO 0,00 h 0,000 mm 3,0 UV-I 254 W/m 10,1 C 14,6 C 5,0 km/h (1 Bft) 0,00 %
08.10.2014 13:00 16,2 C 69 % 1009,8 hPa 0,0 l/m 4,5 km/h (1 Bft) NO 0,00 h 0,000 mm 3,0 UV-I 284 W/m 10,6 C 16,0 C 7,9 km/h (2 Bft) 0,00 %
08.10.2014 14:00 16,8 C 67 % 1009,3 hPa 0,0 l/m 4,3 km/h (1 Bft) O-SO 0,00 h 0,000 mm 2,0 UV-I 241 W/m 10,5 C 16,3 C 7,9 km/h (2 Bft) 0,00 %
08.10.2014 15:00 17,2 C 64 % 1008,9 hPa 0,0 l/m 6,1 km/h (2 Bft) O 0,00 h 0,000 mm 2,0 UV-I 224 W/m 10,4 C 16,6 C 8,9 km/h (2 Bft) 0,00 %
08.10.2014 16:00 16,8 C 66 % 1008,6 hPa 0,0 l/m 8,0 km/h (2 Bft) O-SO 0,50 h 0,000 mm 1,0 UV-I 249 W/m 10,4 C 15,5 C 11,9 km/h (2 Bft) 0,00 %
08.10.2014 17:00 16,1 C 70 % 1009,3 hPa 0,0 l/m 0,7 km/h (0 Bft) O 0,75 h 0,000 mm 1,0 UV-I 99 W/m 10,6 C 16,1 C 3,0 km/h (1 Bft) 0,00 %
08.10.2014 18:00 14,5 C 76 % 1009,7 hPa 0,0 l/m 0,7 km/h (0 Bft) O 0,00 h 0,000 mm 0,0 UV-I 8 W/m 10,2 C 14,5 C 2,0 km/h (1 Bft) 0,00 %
08.10.2014 19:00 13,0 C 81 % 1010,2 hPa 0,0 l/m 0,3 km/h (0 Bft) N 0,00 h 0,000 mm 0,0 UV-I 0 W/m 9,8 C 13,0 C 2,0 km/h (1 Bft) 0,00 %
08.10.2014 20:00 12,4 C 83 % 1010,6 hPa 0,0 l/m 0,3 km/h (0 Bft) SO 0,00 h 0,000 mm 0,0 UV-I 0 W/m 9,5 C 12,4 C 1,0 km/h (0 Bft) 0,00 %
08.10.2014 21:00 12,0 C 83 % 1010,8 hPa 0,0 l/m 0,0 km/h (0 Bft) N 0,00 h 0,000 mm 0,0 UV-I 0 W/m 9,2 C 12,0 C 0,0 km/h (0 Bft) 0,00 %
08.10.2014 22:00 11,5 C 86 % 1010,8 hPa 0,0 l/m 0,0 km/h (0 Bft) N 0,00 h 0,000 mm 0,0 UV-I 0 W/m 9,1 C 11,5 C 0,0 km/h (0 Bft) 0,00 %
08.10.2014 23:00 11,0 C 86 % 1010,7 hPa 0,0 l/m 0,0 km/h (0 Bft) N 0,00 h 0,000 mm 0,0 UV-I 0 W/m 8,8 C 11,0 C 0,0 km/h (0 Bft) 0,00 %
09.10.2014 00:00 10,8 C 87 % 1010,3 hPa 0,0 l/m 0,0 km/h (0 Bft) N 0,00 h 0,000 mm 0,0 UV-I 0 W/m 8,7 C 10,8 C 0,0 km/h (0 Bft) 0,00 %
09.10.2014 01:00 11,4 C 87 % 1010,1 hPa 0,0 l/m 0,9 km/h (0 Bft) O 0,00 h 0,000 mm 0,0 UV-I 0 W/m 9,3 C 11,4 C 3,0 km/h (1 Bft) 0,00 %
09.10.2014 02:00 11,9 C 87 % 1009,9 hPa 0,0 l/m 0,7 km/h (0 Bft) N 0,00 h 0,000 mm 0,0 UV-I 0 W/m 9,8 C 11,9 C 3,0 km/h (1 Bft) 0,00 %
09.10.2014 03:00 12,0 C 88 % 1009,6 hPa 0,0 l/m 1,8 km/h (1 Bft) O-SO 0,00 h 0,000 mm 0,0 UV-I 0 W/m 10,0 C 12,0 C 4,0 km/h (1 Bft) 0,00 %
09.10.2014 04:00 11,9 C 88 % 1009,7 hPa 0,0 l/m 0,3 km/h (0 Bft) O 0,00 h 0,000 mm 0,0 UV-I 0 W/m 10,0 C 11,9 C 1,0 km/h (0 Bft) 0,00 %
09.10.2014 05:00 11,8 C 88 % 1009,8 hPa 0,0 l/m 0,1 km/h (0 Bft) N 0,00 h 0,000 mm 0,0 UV-I 0 W/m 9,9 C 11,8 C 1,0 km/h (0 Bft) 0,00 %
09.10.2014 06:00 11,6 C 87 % 1010,1 hPa 0,0 l/m 0,3 km/h (0 Bft) O-SO 0,00 h 0,000 mm 0,0 UV-I 0 W/m 9,6 C 11,6 C 3,0 km/h (1 Bft) 0,00 %
09.10.2014 07:00 11,5 C 87 % 1010,7 hPa 0,0 l/m 1,6 km/h (1 Bft) O 0,00 h 0,000 mm 0,0 UV-I 2 W/m 9,5 C 11,5 C 4,0 km/h (1 Bft) 0,00 %
09.10.2014 08:00 11,6 C 88 % 1011,3 hPa 0,0 l/m 0,4 km/h (0 Bft) O 0,00 h 0,000 mm 1,0 UV-I 34 W/m 9,5 C 11,6 C 1,0 km/h (0 Bft) 0,00 %
09.10.2014 09:00 11,9 C 88 % 1011,8 hPa 0,0 l/m 0,1 km/h (0 Bft) O 0,00 h 0,000 mm 1,0 UV-I 67 W/m 10,0 C 11,9 C 1,0 km/h (0 Bft) 0,00 %
09.10.2014 10:00 12,2 C 88 % 1012,0 hPa 0,0 l/m 0,6 km/h (0 Bft) N 0,00 h 0,000 mm 1,0 UV-I 99 W/m 10,2 C 12,2 C 2,0 km/h (1 Bft) 0,00 %
09.10.2014 11:00 13,1 C 85 % 1011,8 hPa 0,0 l/m 0,3 km/h (0 Bft) N 0,00 h 0,000 mm 2,0 UV-I 155 W/m 10,6 C 13,1 C 2,0 km/h (1 Bft) 0,00 %
09.10.2014 12:00 14,8 C 77 % 1011,2 hPa 0,0 l/m 0,0 km/h (0 Bft) N 0,00 h 0,000 mm 2,7 UV-I 234 W/m 10,7 C 14,8 C 0,0 km/h (0 Bft) 0,00 %
09.10.2014 13:00 16,1 C 72 % 1009,9 hPa 0,0 l/m 0,4 km/h (0 Bft) NO 0,50 h 0,000 mm 2,7 UV-I 300 W/m 10,9 C 16,1 C 2,0 km/h (1 Bft) 0,00 %
09.10.2014 14:00 16,8 C 70 % 1009,0 hPa 0,0 l/m 1,7 km/h (1 Bft) O-NO 1,00 h 0,000 mm 2,0 UV-I 379 W/m 11,4 C 16,8 C 2,0 km/h (1 Bft) 0,00 %
09.10.2014 15:00 18,0 C 70 % 1008,3 hPa 0,0 l/m 0,6 km/h (0 Bft) O 1,00 h 0,000 mm 1,7 UV-I 416 W/m 12,3 C 18,0 C 3,0 km/h (1 Bft) 0,00 %
09.10.2014 16:00 18,4 C 68 % 1008,3 hPa 0,0 l/m 1,7 km/h (1 Bft) N-NO 1,00 h 0,000 mm 1,0 UV-I 405 W/m 12,3 C 18,4 C 4,0 km/h (1 Bft) 0,00 %
09.10.2014 17:00 18,2 C 67 % 1008,8 hPa 0,0 l/m 0,7 km/h (0 Bft) O-NO 1,00 h 0,000 mm 1,0 UV-I 228 W/m 12,0 C 18,2 C 2,0 km/h (1 Bft) 0,00 %
09.10.2014 18:00 15,6 C 75 % 1009,5 hPa 0,0 l/m 0,2 km/h (0 Bft) O 0,50 h 0,000 mm 0,0 UV-I 27 W/m 11,2 C 15,6 C 1,0 km/h (0 Bft) 0,00 %
09.10.2014 19:00 13,8 C 82 % 1009,9 hPa 0,0 l/m 0,9 km/h (0 Bft) N 0,00 h 0,000 mm 0,0 UV-I 0 W/m 10,7 C 13,8 C 2,0 km/h (1 Bft) 0,00 %
09.10.2014 20:00 12,6 C 84 % 1010,5 hPa 0,0 l/m 0,0 km/h (0 Bft) N 0,00 h 0,000 mm 0,0 UV-I 0 W/m 10,0 C 12,6 C 0,0 km/h (0 Bft) 0,00 %
09.10.2014 21:00 12,2 C 86 % 1010,8 hPa 0,0 l/m 0,6 km/h (0 Bft) O 0,00 h 0,000 mm 0,0 UV-I 0 W/m 9,8 C 12,2 C 2,0 km/h (1 Bft) 0,00 %
09.10.2014 22:00 13,0 C 87 % 1010,9 hPa 0,0 l/m 1,1 km/h (1 Bft) O 0,00 h 0,000 mm 0,0 UV-I 0 W/m 10,8 C 13,0 C 4,0 km/h (1 Bft) 0,00 %
09.10.2014 23:00 12,8 C 87 % 1011,1 hPa 0,0 l/m 0,0 km/h (0 Bft) N 0,00 h 0,000 mm 0,0 UV-I 0 W/m 10,7 C 12,8 C 0,0 km/h (0 Bft) 0,00 %
10.10.2014 00:00 12,9 C 87 % 1011,3 hPa 0,0 l/m 0,1 km/h (0 Bft) N 0,00 h 0,000 mm 0,0 UV-I 0 W/m 10,7 C 12,9 C 1,0 km/h (0 Bft) 0,00 %
10.10.2014 01:00 12,8 C 87 % 1011,8 hPa 0,0 l/m 0,0 km/h (0 Bft) N 0,00 h 0,000 mm 0,0 UV-I 0 W/m 10,7 C 12,8 C 0,0 km/h (0 Bft) 0,00 %
10.10.2014 02:00 12,5 C 87 % 1012,5 hPa 0,3 l/m 0,0 km/h (0 Bft) N 0,00 h 0,000 mm 0,0 UV-I 0 W/m 10,5 C 12,5 C 0,0 km/h (0 Bft) 0,00 %
10.10.2014 03:00 11,6 C 88 % 1013,0 hPa 0,0 l/m 0,0 km/h (0 Bft) N 0,00 h 0,000 mm 0,0 UV-I 0 W/m 9,7 C 11,6 C 0,0 km/h (0 Bft) 0,00 %
10.10.2014 04:00 11,2 C 88 % 1013,3 hPa 0,0 l/m 0,0 km/h (0 Bft) N 0,00 h 0,000 mm 0,0 UV-I 0 W/m 9,3 C 11,2 C 0,0 km/h (0 Bft) 0,00 %
10.10.2014 05:00 11,1 C 88 % 1013,7 hPa 0,0 l/m 0,0 km/h (0 Bft) N 0,00 h 0,000 mm 0,0 UV-I 0 W/m 9,2 C 11,1 C 0,0 km/h (0 Bft) 0,00 %
10.10.2014 06:00 11,1 C 88 % 1014,2 hPa 0,0 l/m 0,0 km/h (0 Bft) N 0,00 h 0,000 mm 0,0 UV-I 0 W/m 9,2 C 11,1 C 0,0 km/h (0 Bft) 0,00 %
10.10.2014 07:00 11,1 C 88 % 1014,6 hPa 0,0 l/m 0,0 km/h (0 Bft) N 0,00 h 0,000 mm 0,0 UV-I 7 W/m 9,2 C 11,1 C 0,0 km/h (0 Bft) 0,00 %
10.10.2014 08:00 11,5 C 88 % 1015,1 hPa 0,0 l/m 0,2 km/h (0 Bft) N 0,00 h 0,000 mm 1,0 UV-I 49 W/m 9,5 C 11,5 C 1,0 km/h (0 Bft) 0,00 %
10.10.2014 09:00 11,9 C 88 % 1015,3 hPa 0,0 l/m 0,0 km/h (0 Bft) N 0,00 h 0,000 mm 1,7 UV-I 109 W/m 10,0 C 11,9 C 0,0 km/h (0 Bft) 0,00 %
10.10.2014 10:00 13,1 C 83 % 1015,7 hPa 0,0 l/m 0,0 km/h (0 Bft) N 0,00 h 0,000 mm 1,7 UV-I 140 W/m 10,3 C 13,1 C 0,0 km/h (0 Bft) 0,00 %
10.10.2014 11:00 14,3 C 80 % 1015,4 hPa 0,0 l/m 0,1 km/h (0 Bft) N 0,00 h 0,000 mm 2,0 UV-I 183 W/m 10,8 C 14,3 C 1,0 km/h (0 Bft) 0,00 %
10.10.2014 12:00 15,8 C 72 % 1014,5 hPa 0,0 l/m 0,0 km/h (0 Bft) N 0,25 h 0,000 mm 3,0 UV-I 315 W/m 10,8 C 15,8 C 0,0 km/h (0 Bft) 0,00 %
10.10.2014 13:00 16,7 C 70 % 1013,4 hPa 0,0 l/m 0,0 km/h (0 Bft) N 0,00 h 0,000 mm 2,0 UV-I 185 W/m 11,1 C 16,7 C 0,0 km/h (0 Bft) 0,00 %
10.10.2014 14:00 17,2 C 70 % 1013,0 hPa 0,0 l/m 0,2 km/h (0 Bft) N 0,00 h 0,000 mm 2,0 UV-I 132 W/m 11,7 C 17,2 C 1,0 km/h (0 Bft) 0,00 %
10.10.2014 15:00 17,4 C 71 % 1013,1 hPa 0,0 l/m 0,1 km/h (0 Bft) N 0,00 h 0,000 mm 2,0 UV-I 169 W/m 12,0 C 17,4 C 1,0 km/h (0 Bft) 0,00 %
10.10.2014 16:00 18,2 C 68 % 1012,0 hPa 0,0 l/m 0,0 km/h (0 Bft) N 0,00 h 0,000 mm 1,0 UV-I 128 W/m 12,1 C 18,2 C 0,0 km/h (0 Bft) 0,00 %
10.10.2014 17:00 18,0 C 68 % 1012,8 hPa 0,0 l/m 0,4 km/h (0 Bft) N 0,75 h 0,000 mm 1,0 UV-I 173 W/m 12,0 C 18,0 C 3,0 km/h (1 Bft) 0,00 %
10.10.2014 18:00 15,8 C 78 % 1013,5 hPa 0,0 l/m 1,1 km/h (0 Bft) O 0,00 h 0,000 mm 0,0 UV-I 5 W/m 11,9 C 15,8 C 2,0 km/h (1 Bft) 0,00 %
10.10.2014 19:00 14,6 C 82 % 1014,0 hPa 0,0 l/m 1,3 km/h (1 Bft) O-SO 0,00 h 0,000 mm 0,0 UV-I 0 W/m 11,5 C 14,6 C 3,0 km/h (1 Bft) 0,00 %
10.10.2014 20:00 14,0 C 83 % 1014,2 hPa 0,0 l/m 4,1 km/h (1 Bft) NO 0,00 h 0,000 mm 0,0 UV-I 0 W/m 11,2 C 13,6 C 8,9 km/h (2 Bft) 0,00 %
10.10.2014 21:00 14,0 C 83 % 1014,3 hPa 0,0 l/m 6,0 km/h (2 Bft) O-SO 0,00 h 0,000 mm 0,0 UV-I 0 W/m 11,2 C 13,4 C 9,9 km/h (2 Bft) 0,00 %
10.10.2014 22:00 14,1 C 83 % 1013,8 hPa 0,0 l/m 1,6 km/h (1 Bft) O 0,00 h 0,000 mm 0,0 UV-I 0 W/m 11,3 C 14,1 C 5,0 km/h (1 Bft) 0,00 %
10.10.2014 23:00 14,3 C 83 % 1013,6 hPa 0,0 l/m 6,8 km/h (2 Bft) O-SO 0,00 h 0,000 mm 0,0 UV-I 0 W/m 11,4 C 13,2 C 10,6 km/h (2 Bft) 0,00 %
11.10.2014 00:00 14,1 C 83 % 1013,0 hPa 0,0 l/m 5,8 km/h (2 Bft) O 0,00 h 0,000 mm 0,0 UV-I 0 W/m 11,3 C 13,2 C 7,9 km/h (2 Bft) 0,00 %
11.10.2014 01:00 13,8 C 83 % 1012,4 hPa 0,0 l/m 3,3 km/h (1 Bft) O-SO 0,00 h 0,000 mm 0,0 UV-I 0 W/m 10,9 C 13,8 C 5,0 km/h (1 Bft) 0,00 %
11.10.2014 02:00 13,5 C 83 % 1012,0 hPa 0,0 l/m 6,2 km/h (2 Bft) O 0,00 h 0,000 mm 0,0 UV-I 0 W/m 10,7 C 12,8 C 8,9 km/h (2 Bft) 0,00 %
11.10.2014 03:00 13,4 C 85 % 1011,7 hPa 0,0 l/m 4,0 km/h (1 Bft) O-SO 0,00 h 0,000 mm 0,0 UV-I 0 W/m 10,9 C 13,2 C 6,9 km/h (2 Bft) 0,00 %
11.10.2014 04:00 13,4 C 85 % 1011,5 hPa 0,0 l/m 2,3 km/h (1 Bft) O 0,00 h 0,000 mm 0,0 UV-I 0 W/m 10,9 C 13,4 C 4,0 km/h (1 Bft) 0,00 %
11.10.2014 05:00 13,4 C 83 % 1011,3 hPa 0,0 l/m 5,1 km/h (1 Bft) O-SO 0,00 h 0,000 mm 0,0 UV-I 0 W/m 10,6 C 13,4 C 6,9 km/h (2 Bft) 0,00 %
11.10.2014 06:00 13,3 C 84 % 1011,3 hPa 0,0 l/m 0,8 km/h (0 Bft) O-NO 0,00 h 0,000 mm 0,0 UV-I 0 W/m 10,6 C 13,3 C 3,0 km/h (1 Bft) 0,00 %
11.10.2014 07:00 13,2 C 84 % 1011,5 hPa 0,0 l/m 0,9 km/h (0 Bft) O 0,00 h 0,000 mm 0,0 UV-I 1 W/m 10,5 C 13,2 C 4,0 km/h (1 Bft) 0,00 %
11.10.2014 08:00 13,2 C 83 % 1011,8 hPa 0,0 l/m 0,2 km/h (0 Bft) N 0,00 h 0,000 mm 0,0 UV-I 23 W/m 10,4 C 13,2 C 2,0 km/h (1 Bft) 0,00 %
11.10.2014 09:00 13,3 C 83 % 1012,4 hPa 0,0 l/m 0,0 km/h (0 Bft) N 0,00 h 0,000 mm 1,0 UV-I 50 W/m 10,5 C 13,3 C 0,0 km/h (0 Bft) 0,00 %
11.10.2014 10:00 14,4 C 79 % 1012,8 hPa 0,0 l/m 0,0 km/h (0 Bft) N 0,00 h 0,000 mm 1,3 UV-I 130 W/m 10,7 C 14,4 C 0,0 km/h (0 Bft) 0,00 %
11.10.2014 11:00 15,7 C 72 % 1012,5 hPa 0,0 l/m 0,2 km/h (0 Bft) N 0,00 h 0,000 mm 1,7 UV-I 191 W/m 10,7 C 15,7 C 2,0 km/h (1 Bft) 0,00 %
11.10.2014 12:00 17,4 C 66 % 1012,0 hPa 0,0 l/m 0,3 km/h (0 Bft) N 0,00 h 0,000 mm 2,3 UV-I 257 W/m 11,0 C 17,4 C 2,0 km/h (1 Bft) 0,00 %
11.10.2014 13:00 17,2 C 67 % 1011,5 hPa 0,0 l/m 0,1 km/h (0 Bft) N 0,00 h 0,000 mm 2,0 UV-I 170 W/m 11,0 C 17,2 C 1,0 km/h (0 Bft) 0,00 %
11.10.2014 14:00 17,8 C 65 % 1011,2 hPa 0,0 l/m 0,8 km/h (0 Bft) W-NW 0,00 h 0,000 mm 2,0 UV-I 176 W/m 11,2 C 17,8 C 1,0 km/h (0 Bft) 0,00 %
11.10.2014 15:00 18,2 C 66 % 1011,3 hPa 0,0 l/m 0,8 km/h (0 Bft) N 0,75 h 0,000 mm 2,0 UV-I 241 W/m 11,6 C 18,2 C 3,0 km/h (1 Bft) 0,00 %
11.10.2014 16:00 17,2 C 68 % 1011,6 hPa 0,0 l/m 0,0 km/h (0 Bft) N 0,25 h 0,000 mm 1,0 UV-I 157 W/m 11,3 C 17,2 C 0,0 km/h (0 Bft) 0,00 %
11.10.2014 17:00 16,0 C 72 % 1012,3 hPa 0,0 l/m 0,0 km/h (0 Bft) N 0,00 h 0,000 mm 1,0 UV-I 31 W/m 10,8 C 16,0 C 0,0 km/h (0 Bft) 0,00 %
11.10.2014 18:00 15,2 C 73 % 1012,9 hPa 0,0 l/m 0,3 km/h (0 Bft) N 0,00 h 0,000 mm 0,0 UV-I 0 W/m 10,4 C 15,2 C 2,0 km/h (1 Bft) 0,00 %
11.10.2014 19:00 14,7 C 76 % 1013,5 hPa 0,0 l/m 0,1 km/h (0 Bft) N 0,00 h 0,000 mm 0,0 UV-I 0 W/m 10,6 C 14,7 C 1,0 km/h (0 Bft) 0,00 %
11.10.2014 20:00 14,4 C 82 % 1013,7 hPa 0,3 l/m 0,0 km/h (0 Bft) N 0,00 h 0,000 mm 0,0 UV-I 0 W/m 11,2 C 14,4 C 0,0 km/h (0 Bft) 0,00 %
11.10.2014 21:00 14,1 C 83 % 1014,2 hPa 1,5 l/m 0,0 km/h (0 Bft) N 0,00 h 0,000 mm 0,0 UV-I 0 W/m 11,3 C 14,1 C 0,0 km/h (0 Bft) 0,00 %
11.10.2014 22:00 14,0 C 85 % 1014,7 hPa 1,5 l/m 0,0 km/h (0 Bft) N 0,00 h 0,000 mm 0,0 UV-I 0 W/m 11,5 C 14,0 C 0,0 km/h (0 Bft) 0,00 %
11.10.2014 23:00 13,9 C 85 % 1014,9 hPa 0,0 l/m 0,0 km/h (0 Bft) N 0,00 h 0,000 mm 0,0 UV-I 0 W/m 11,5 C 13,9 C 0,0 km/h (0 Bft) 0,00 %
12.10.2014 00:00 13,4 C 86 % 1014,7 hPa 0,0 l/m 0,0 km/h (0 Bft) N 0,00 h 0,000 mm 0,0 UV-I 0 W/m 11,1 C 13,4 C 0,0 km/h (0 Bft) 0,00 %
12.10.2014 01:00 12,9 C 86 % 1014,7 hPa 0,0 l/m 0,0 km/h (0 Bft) N 0,00 h 0,000 mm 0,0 UV-I 0 W/m 10,6 C 12,9 C 0,0 km/h (0 Bft) 0,00 %
12.10.2014 02:00 12,0 C 87 % 1014,9 hPa 0,3 l/m 0,0 km/h (0 Bft) N 0,00 h 0,000 mm 0,0 UV-I 0 W/m 9,9 C 12,0 C 0,0 km/h (0 Bft) 0,00 %
12.10.2014 03:00 11,1 C 87 % 1014,9 hPa 0,0 l/m 0,0 km/h (0 Bft) N 0,00 h 0,000 mm 0,0 UV-I 0 W/m 9,0 C 11,1 C 0,0 km/h (0 Bft) 0,00 %
12.10.2014 04:00 10,3 C 88 % 1015,0 hPa 0,0 l/m 0,0 km/h (0 Bft) N 0,00 h 0,000 mm 0,0 UV-I 0 W/m 8,4 C 10,3 C 0,0 km/h (0 Bft) 0,00 %
12.10.2014 05:00 10,4 C 87 % 1015,2 hPa 0,0 l/m 0,0 km/h (0 Bft) N 0,00 h 0,000 mm 0,0 UV-I 0 W/m 8,4 C 10,4 C 0,0 km/h (0 Bft) 0,00 %
12.10.2014 06:00 10,9 C 87 % 1015,1 hPa 0,0 l/m 0,1 km/h (0 Bft) N 0,00 h 0,000 mm 0,0 UV-I 0 W/m 8,8 C 10,9 C 1,0 km/h (0 Bft) 0,00 %
12.10.2014 07:00 11,1 C 87 % 1015,3 hPa 0,0 l/m 0,0 km/h (0 Bft) N 0,00 h 0,000 mm 0,0 UV-I 4 W/m 9,0 C 11,1 C 0,0 km/h (0 Bft) 0,00 %
12.10.2014 08:00 11,8 C 87 % 1015,4 hPa 0,0 l/m 0,3 km/h (0 Bft) SO 0,00 h 0,000 mm 1,0 UV-I 40 W/m 9,7 C 11,8 C 1,0 km/h (0 Bft) 0,00 %
12.10.2014 09:00 12,4 C 87 % 1015,2 hPa 0,0 l/m 1,8 km/h (1 Bft) O 0,00 h 0,000 mm 1,0 UV-I 76 W/m 10,3 C 12,4 C 3,0 km/h (1 Bft) 0,00 %
12.10.2014 10:00 13,0 C 87 % 1014,7 hPa 0,0 l/m 1,6 km/h (1 Bft) O-NO 0,00 h 0,000 mm 1,3 UV-I 106 W/m 10,8 C 13,0 C 4,0 km/h (1 Bft) 0,00 %
12.10.2014 11:00 13,7 C 86 % 1014,0 hPa 0,0 l/m 1,5 km/h (1 Bft) O-SO 0,00 h 0,000 mm 2,0 UV-I 173 W/m 11,4 C 13,7 C 4,0 km/h (1 Bft) 0,00 %
12.10.2014 12:00 15,6 C 80 % 1012,9 hPa 0,0 l/m 4,0 km/h (1 Bft) O 0,25 h 0,000 mm 2,7 UV-I 202 W/m 12,0 C 15,5 C 5,9 km/h (2 Bft) 0,00 %
12.10.2014 13:00 17,1 C 74 % 1011,0 hPa 0,0 l/m 5,1 km/h (1 Bft) O 0,00 h 0,000 mm 2,0 UV-I 155 W/m 12,3 C 16,5 C 7,9 km/h (2 Bft) 0,00 %
12.10.2014 14:00 18,7 C 70 % 1009,9 hPa 0,0 l/m 3,0 km/h (1 Bft) N-NO 1,00 h 0,000 mm 2,0 UV-I 337 W/m 13,0 C 18,7 C 5,0 km/h (1 Bft) 0,00 %
12.10.2014 15:00 19,9 C 62 % 1009,1 hPa 0,0 l/m 4,7 km/h (1 Bft) O 0,50 h 0,000 mm 1,7 UV-I 223 W/m 12,4 C 19,6 C 8,9 km/h (2 Bft) 0,00 %
12.10.2014 16:00 19,9 C 60 % 1008,6 hPa 0,0 l/m 6,4 km/h (2 Bft) O-NO 0,25 h 0,000 mm 1,0 UV-I 136 W/m 12,0 C 19,6 C 8,9 km/h (2 Bft) 0,00 %
12.10.2014 17:00 19,2 C 62 % 1008,5 hPa 0,0 l/m 2,0 km/h (1 Bft) O 0,75 h 0,000 mm 1,0 UV-I 210 W/m 11,8 C 19,2 C 5,0 km/h (1 Bft) 0,00 %
12.10.2014 18:00 17,7 C 67 % 1008,6 hPa 0,0 l/m 3,0 km/h (1 Bft) O 0,25 h 0,000 mm 0,0 UV-I 2 W/m 11,5 C 17,7 C 4,0 km/h (1 Bft) 0,00 %
12.10.2014 19:00 16,9 C 69 % 1008,7 hPa 0,0 l/m 4,5 km/h (1 Bft) O 0,00 h 0,000 mm 0,0 UV-I 0 W/m 11,2 C 16,9 C 7,9 km/h (2 Bft) 0,00 %
12.10.2014 20:00 16,3 C 72 % 1008,7 hPa 0,0 l/m 7,8 km/h (2 Bft) O 0,00 h 0,000 mm 0,0 UV-I 0 W/m 11,1 C 15,2 C 9,9 km/h (2 Bft) 0,00 %
12.10.2014 21:00 15,6 C 74 % 1008,9 hPa 0,0 l/m 2,7 km/h (1 Bft) NO 0,00 h 0,000 mm 0,0 UV-I 0 W/m 11,0 C 15,4 C 6,0 km/h (2 Bft) 0,00 %
12.10.2014 22:00 14,9 C 78 % 1008,5 hPa 0,0 l/m 2,5 km/h (1 Bft) O-SO 0,00 h 0,000 mm 0,0 UV-I 0 W/m 11,0 C 14,7 C 5,0 km/h (1 Bft) 0,00 %
12.10.2014 23:00 14,1 C 82 % 1008,6 hPa 0,0 l/m 0,1 km/h (0 Bft) N 0,00 h 0,000 mm 0,0 UV-I 0 W/m 11,0 C 14,1 C 1,0 km/h (0 Bft) 0,00 %
Min-Datum _ 07.10.14 07.10.14 07.10.14 - 06.10.14 - - - - - 07.10.14 07.10.14 06.10.14 06.10.14
_ Min-Zeit 06:30 15:00 15:45 - 00:00 - - - - - 07:15 06:30 00:00 00:00
Minimum _ 5,2 C 56 % 1007,3 hPa - 0,0 km/h (0 Bft) - - - - - 3,5 C 5,2 C 0,0 km/h (0 Bft) 0,00 %
Max-Datum _ 12.10.14 07.10.14 10.10.14 11.10.14 08.10.14 - 06.10.14 06.10.14 06.10.14 06.10.14 12.10.14 12.10.14 08.10.14 06.10.14
_ Max-Zeit 15:45 06:30 10:30 21:45 16:15 - 08:30 00:00 12:00 14:45 14:30 16:00 16:15 00:00
Maximum _ 20,1 C 90 % 1016,0 hPa 1,5 l/m 16,9 km/h
O-SO (3 Bft)
- 0,25 h 0,000 mm 4,0 UV-I 433 W/m 13,2 C 20,1 C 19,8 km/h
O-SO (3 Bft)
0,00 %
Durchschnitt _ 13,1 C 79 % 1011,6 hPa #4,2 l/m 1,2 km/h (1 Bft) O #20:00 h #0,000 mm 1,7 UV-I 165 W/m 9,4 C 13,1 C 2,5 km/h (1 Bft) 0,00 %